sensor_id;sensor_type;location;lat;lon;timestamp;pressure;altitude;pressure_sealevel;temperature;humidity
48530;BME280;34927;37.302;-121.982;2023-02-28T00:00:22;100646.0;;;22.14;31.24
48530;BME280;34927;37.302;-121.982;2023-02-28T00:01:27;100641.0;;;22.09;31.43
48530;BME280;34927;37.302;-121.982;2023-02-28T00:02:31;100640.0;;;22.06;31.39
48530;BME280;34927;37.302;-121.982;2023-02-28T00:03:36;100644.0;;;21.97;31.54
48530;BME280;34927;37.302;-121.982;2023-02-28T00:04:41;100639.0;;;21.86;31.82
48530;BME280;34927;37.302;-121.982;2023-02-28T00:05:46;100637.0;;;21.93;31.59
48530;BME280;34927;37.302;-121.982;2023-02-28T00:06:52;100636.0;;;22.12;31.35
48530;BME280;34927;37.302;-121.982;2023-02-28T00:07:56;100635.0;;;22.05;31.54
48530;BME280;34927;37.302;-121.982;2023-02-28T00:09:02;100636.0;;;22.08;31.54
48530;BME280;34927;37.302;-121.982;2023-02-28T00:10:08;100640.0;;;22.06;31.64
48530;BME280;34927;37.302;-121.982;2023-02-28T00:11:13;100640.0;;;22.20;31.41
48530;BME280;34927;37.302;-121.982;2023-02-28T00:12:17;100634.0;;;22.21;31.34
48530;BME280;34927;37.302;-121.982;2023-02-28T00:13:21;100631.0;;;22.15;31.44
48530;BME280;34927;37.302;-121.982;2023-02-28T00:14:26;100633.0;;;22.17;31.38
48530;BME280;34927;37.302;-121.982;2023-02-28T00:15:32;100632.0;;;22.15;31.31
48530;BME280;34927;37.302;-121.982;2023-02-28T00:16:37;100630.0;;;22.16;31.37
48530;BME280;34927;37.302;-121.982;2023-02-28T00:17:42;100631.0;;;22.18;31.33
48530;BME280;34927;37.302;-121.982;2023-02-28T00:18:47;100630.0;;;22.11;31.50
48530;BME280;34927;37.302;-121.982;2023-02-28T00:19:52;100632.0;;;22.07;31.40
48530;BME280;34927;37.302;-121.982;2023-02-28T00:20:57;100633.0;;;22.17;31.23
48530;BME280;34927;37.302;-121.982;2023-02-28T00:22:02;100635.0;;;22.09;31.45
48530;BME280;34927;37.302;-121.982;2023-02-28T00:23:07;100633.0;;;22.18;31.24
48530;BME280;34927;37.302;-121.982;2023-02-28T00:24:11;100637.0;;;22.14;31.28
48530;BME280;34927;37.302;-121.982;2023-02-28T00:25:18;100641.0;;;22.08;31.29
48530;BME280;34927;37.302;-121.982;2023-02-28T00:26:21;100641.0;;;22.07;31.35
48530;BME280;34927;37.302;-121.982;2023-02-28T00:27:27;100639.0;;;22.07;31.23
48530;BME280;34927;37.302;-121.982;2023-02-28T00:28:32;100637.0;;;22.22;31.05
48530;BME280;34927;37.302;-121.982;2023-02-28T00:29:37;100641.0;;;22.22;31.01
48530;BME280;34927;37.302;-121.982;2023-02-28T00:30:42;100646.0;;;22.25;31.01
48530;BME280;34927;37.302;-121.982;2023-02-28T00:31:46;100643.0;;;22.31;30.83
48530;BME280;34927;37.302;-121.982;2023-02-28T00:32:51;100645.0;;;22.16;31.17
48530;BME280;34927;37.302;-121.982;2023-02-28T00:33:56;100649.0;;;21.92;31.49
48530;BME280;34927;37.302;-121.982;2023-02-28T00:35:02;100652.0;;;21.78;31.61
48530;BME280;34927;37.302;-121.982;2023-02-28T00:36:09;100654.0;;;21.75;31.56
48530;BME280;34927;37.302;-121.982;2023-02-28T00:37:12;100656.0;;;21.68;31.66
48530;BME280;34927;37.302;-121.982;2023-02-28T00:38:17;100659.0;;;21.74;31.54
48530;BME280;34927;37.302;-121.982;2023-02-28T00:39:22;100662.0;;;21.69;31.58
48530;BME280;34927;37.302;-121.982;2023-02-28T00:40:27;100661.0;;;21.76;31.36
48530;BME280;34927;37.302;-121.982;2023-02-28T00:41:32;100659.0;;;21.87;31.29
48530;BME280;34927;37.302;-121.982;2023-02-28T00:42:36;100665.0;;;21.92;31.10
48530;BME280;34927;37.302;-121.982;2023-02-28T00:43:41;100668.0;;;21.81;31.27
48530;BME280;34927;37.302;-121.982;2023-02-28T00:44:46;100676.0;;;21.71;31.44
48530;BME280;34927;37.302;-121.982;2023-02-28T00:45:51;100677.0;;;21.78;31.26
48530;BME280;34927;37.302;-121.982;2023-02-28T00:46:57;100684.0;;;21.73;31.39
48530;BME280;34927;37.302;-121.982;2023-02-28T00:48:01;100686.0;;;21.60;31.54
48530;BME280;34927;37.302;-121.982;2023-02-28T00:49:06;100686.0;;;21.64;31.51
48530;BME280;34927;37.302;-121.982;2023-02-28T00:50:12;100688.0;;;21.56;31.59
48530;BME280;34927;37.302;-121.982;2023-02-28T00:51:17;100686.0;;;21.57;31.56
48530;BME280;34927;37.302;-121.982;2023-02-28T00:52:21;100686.0;;;21.55;31.54
48530;BME280;34927;37.302;-121.982;2023-02-28T00:53:27;100686.0;;;21.57;31.50
48530;BME280;34927;37.302;-121.982;2023-02-28T00:54:32;100686.0;;;21.53;31.54
48530;BME280;34927;37.302;-121.982;2023-02-28T00:55:36;100684.0;;;21.52;31.53
48530;BME280;34927;37.302;-121.982;2023-02-28T00:56:41;100679.0;;;21.31;31.86
48530;BME280;34927;37.302;-121.982;2023-02-28T00:57:46;100680.0;;;21.35;31.78
48530;BME280;34927;37.302;-121.982;2023-02-28T00:58:51;100680.0;;;21.38;31.68
48530;BME280;34927;37.302;-121.982;2023-02-28T00:59:56;100679.0;;;21.31;31.70
48530;BME280;34927;37.302;-121.982;2023-02-28T01:01:01;100680.0;;;21.24;31.87
48530;BME280;34927;37.302;-121.982;2023-02-28T01:02:06;100681.0;;;21.30;31.78
48530;BME280;34927;37.302;-121.982;2023-02-28T01:03:11;100683.0;;;21.26;31.82
48530;BME280;34927;37.302;-121.982;2023-02-28T01:04:17;100690.0;;;21.24;31.82
48530;BME280;34927;37.302;-121.982;2023-02-28T01:05:22;100690.0;;;21.10;31.98
48530;BME280;34927;37.302;-121.982;2023-02-28T01:06:27;100696.0;;;21.27;31.69
48530;BME280;34927;37.302;-121.982;2023-02-28T01:07:32;100694.0;;;21.23;31.78
48530;BME280;34927;37.302;-121.982;2023-02-28T01:08:37;100694.0;;;21.14;31.83
48530;BME280;34927;37.302;-121.982;2023-02-28T01:09:41;100697.0;;;21.07;31.92
48530;BME280;34927;37.302;-121.982;2023-02-28T01:10:48;100698.0;;;21.08;31.94
48530;BME280;34927;37.302;-121.982;2023-02-28T01:11:51;100697.0;;;21.02;31.98
48530;BME280;34927;37.302;-121.982;2023-02-28T01:12:57;100694.0;;;20.95;32.07
48530;BME280;34927;37.302;-121.982;2023-02-28T01:14:02;100696.0;;;21.06;31.87
48530;BME280;34927;37.302;-121.982;2023-02-28T01:15:09;100698.0;;;21.12;31.73
48530;BME280;34927;37.302;-121.982;2023-02-28T01:16:12;100697.0;;;21.38;31.37
48530;BME280;34927;37.302;-121.982;2023-02-28T01:17:17;100695.0;;;21.34;31.54
48530;BME280;34927;37.302;-121.982;2023-02-28T01:18:22;100694.0;;;21.30;31.66
48530;BME280;34927;37.302;-121.982;2023-02-28T01:19:27;100692.0;;;21.34;31.63
48530;BME280;34927;37.302;-121.982;2023-02-28T01:20:31;100692.0;;;21.36;31.66
48530;BME280;34927;37.302;-121.982;2023-02-28T01:21:37;100693.0;;;21.29;32.02
48530;BME280;34927;37.302;-121.982;2023-02-28T01:22:42;100692.0;;;21.27;31.56
48530;BME280;34927;37.302;-121.982;2023-02-28T01:23:48;100695.0;;;21.25;31.62
48530;BME280;34927;37.302;-121.982;2023-02-28T01:24:52;100694.0;;;21.30;31.58
48530;BME280;34927;37.302;-121.982;2023-02-28T01:25:57;100691.0;;;21.26;31.68
48530;BME280;34927;37.302;-121.982;2023-02-28T01:27:02;100698.0;;;21.32;31.38
48530;BME280;34927;37.302;-121.982;2023-02-28T01:28:06;100696.0;;;21.23;31.58
48530;BME280;34927;37.302;-121.982;2023-02-28T01:29:11;100694.0;;;21.29;31.57
48530;BME280;34927;37.302;-121.982;2023-02-28T01:30:17;100699.0;;;21.50;31.43
48530;BME280;34927;37.302;-121.982;2023-02-28T01:31:22;100705.0;;;21.73;31.29
48530;BME280;34927;37.302;-121.982;2023-02-28T01:32:27;100705.0;;;22.01;30.90
48530;BME280;34927;37.302;-121.982;2023-02-28T01:33:32;100708.0;;;22.28;30.53
48530;BME280;34927;37.302;-121.982;2023-02-28T01:34:37;100706.0;;;22.48;30.29
48530;BME280;34927;37.302;-121.982;2023-02-28T01:35:42;100699.0;;;22.75;29.92
48530;BME280;34927;37.302;-121.982;2023-02-28T01:36:46;100704.0;;;22.97;29.60
48530;BME280;34927;37.302;-121.982;2023-02-28T01:37:52;100705.0;;;23.11;29.36
48530;BME280;34927;37.302;-121.982;2023-02-28T01:38:56;100707.0;;;23.30;29.09
48530;BME280;34927;37.302;-121.982;2023-02-28T01:40:02;100708.0;;;23.41;28.86
48530;BME280;34927;37.302;-121.982;2023-02-28T01:41:08;100708.0;;;23.55;28.74
48530;BME280;34927;37.302;-121.982;2023-02-28T01:42:11;100714.0;;;23.70;28.53
48530;BME280;34927;37.302;-121.982;2023-02-28T01:43:22;100715.0;;;23.83;28.34
48530;BME280;34927;37.302;-121.982;2023-02-28T01:45:42;100718.0;;;24.04;28.09
48530;BME280;34927;37.302;-121.982;2023-02-28T01:46:46;100722.0;;;24.18;27.94
48530;BME280;34927;37.302;-121.982;2023-02-28T01:47:54;100722.0;;;24.22;27.83
48530;BME280;34927;37.302;-121.982;2023-02-28T01:49:06;100719.0;;;24.32;27.71
48530;BME280;34927;37.302;-121.982;2023-02-28T01:50:16;100719.0;;;24.45;27.56
48530;BME280;34927;37.302;-121.982;2023-02-28T01:51:24;100718.0;;;24.50;27.45
48530;BME280;34927;37.302;-121.982;2023-02-28T01:52:32;100718.0;;;24.54;27.42
48530;BME280;34927;37.302;-121.982;2023-02-28T01:53:39;100722.0;;;24.36;27.56
48530;BME280;34927;37.302;-121.982;2023-02-28T01:54:50;100726.0;;;24.18;27.84
48530;BME280;34927;37.302;-121.982;2023-02-28T01:55:57;100720.0;;;24.00;27.99
48530;BME280;34927;37.302;-121.982;2023-02-28T01:57:05;100716.0;;;23.85;28.10
48530;BME280;34927;37.302;-121.982;2023-02-28T01:58:12;100714.0;;;23.73;28.16
48530;BME280;34927;37.302;-121.982;2023-02-28T01:59:23;100712.0;;;23.51;28.21
48530;BME280;34927;37.302;-121.982;2023-02-28T02:00:33;100710.0;;;23.54;28.24
48530;BME280;34927;37.302;-121.982;2023-02-28T02:01:36;100708.0;;;23.60;28.12
48530;BME280;34927;37.302;-121.982;2023-02-28T02:02:43;100708.0;;;23.78;27.89
48530;BME280;34927;37.302;-121.982;2023-02-28T02:03:46;100713.0;;;23.88;27.70
48530;BME280;34927;37.302;-121.982;2023-02-28T02:04:55;100713.0;;;24.01;27.49
48530;BME280;34927;37.302;-121.982;2023-02-28T02:06:02;100714.0;;;24.14;27.32
48530;BME280;34927;37.302;-121.982;2023-02-28T02:07:07;100712.0;;;24.27;27.11
48530;BME280;34927;37.302;-121.982;2023-02-28T02:08:15;100712.0;;;24.35;26.98
48530;BME280;34927;37.302;-121.982;2023-02-28T02:09:22;100711.0;;;24.45;26.91
48530;BME280;34927;37.302;-121.982;2023-02-28T02:10:30;100713.0;;;24.50;26.76
48530;BME280;34927;37.302;-121.982;2023-02-28T02:11:37;100714.0;;;24.62;26.64
48530;BME280;34927;37.302;-121.982;2023-02-28T02:14:06;100720.0;;;24.80;26.83
48530;BME280;34927;37.302;-121.982;2023-02-28T02:15:14;100717.0;;;24.85;26.81
48530;BME280;34927;37.302;-121.982;2023-02-28T02:16:33;100718.0;;;24.92;26.69
48530;BME280;34927;37.302;-121.982;2023-02-28T02:17:39;100720.0;;;25.01;26.55
48530;BME280;34927;37.302;-121.982;2023-02-28T02:18:49;100722.0;;;25.04;26.49
48530;BME280;34927;37.302;-121.982;2023-02-28T02:21:24;100732.0;;;25.13;26.40
48530;BME280;34927;37.302;-121.982;2023-02-28T02:22:52;100738.0;;;25.21;26.27
48530;BME280;34927;37.302;-121.982;2023-02-28T02:24:19;100742.0;;;25.29;26.20
48530;BME280;34927;37.302;-121.982;2023-02-28T02:25:35;100746.0;;;25.36;26.12
48530;BME280;34927;37.302;-121.982;2023-02-28T02:26:55;100745.0;;;25.38;26.03
48530;BME280;34927;37.302;-121.982;2023-02-28T02:28:26;100752.0;;;25.44;25.95
48530;BME280;34927;37.302;-121.982;2023-02-28T02:31:00;100765.0;;;25.51;25.81
48530;BME280;34927;37.302;-121.982;2023-02-28T02:34:48;100776.0;;;25.63;25.73
48530;BME280;34927;37.302;-121.982;2023-02-28T02:35:59;100774.0;;;25.64;25.63
48530;BME280;34927;37.302;-121.982;2023-02-28T02:37:14;100769.0;;;25.66;25.57
48530;BME280;34927;37.302;-121.982;2023-02-28T02:38:32;100770.0;;;25.73;25.51
48530;BME280;34927;37.302;-121.982;2023-02-28T02:39:48;100767.0;;;25.77;25.43
48530;BME280;34927;37.302;-121.982;2023-02-28T02:40:57;100765.0;;;25.57;25.61
48530;BME280;34927;37.302;-121.982;2023-02-28T02:42:03;100768.0;;;25.32;25.95
48530;BME280;34927;37.302;-121.982;2023-02-28T02:43:17;100769.0;;;25.03;26.33
48530;BME280;34927;37.302;-121.982;2023-02-28T02:44:24;100767.0;;;25.04;26.36
48530;BME280;34927;37.302;-121.982;2023-02-28T02:45:35;100767.0;;;24.87;26.40
48530;BME280;34927;37.302;-121.982;2023-02-28T02:46:44;100767.0;;;24.70;26.52
48530;BME280;34927;37.302;-121.982;2023-02-28T02:47:46;100764.0;;;24.67;26.88
48530;BME280;34927;37.302;-121.982;2023-02-28T02:48:53;100766.0;;;24.70;26.78
48530;BME280;34927;37.302;-121.982;2023-02-28T02:50:05;100763.0;;;24.87;26.61
48530;BME280;34927;37.302;-121.982;2023-02-28T02:51:14;100763.0;;;25.01;26.38
48530;BME280;34927;37.302;-121.982;2023-02-28T02:52:24;100756.0;;;25.15;26.20
48530;BME280;34927;37.302;-121.982;2023-02-28T02:53:36;100756.0;;;25.28;26.05
48530;BME280;34927;37.302;-121.982;2023-02-28T02:54:45;100759.0;;;25.38;25.95
48530;BME280;34927;37.302;-121.982;2023-02-28T02:55:53;100761.0;;;25.49;25.79
48530;BME280;34927;37.302;-121.982;2023-02-28T02:56:58;100762.0;;;25.54;25.77
48530;BME280;34927;37.302;-121.982;2023-02-28T02:58:04;100763.0;;;25.64;25.79
48530;BME280;34927;37.302;-121.982;2023-02-28T02:59:13;100764.0;;;25.78;25.77
48530;BME280;34927;37.302;-121.982;2023-02-28T03:00:25;100765.0;;;25.87;25.68
48530;BME280;34927;37.302;-121.982;2023-02-28T03:01:32;100767.0;;;25.90;25.67
48530;BME280;34927;37.302;-121.982;2023-02-28T03:02:37;100769.0;;;25.75;25.84
48530;BME280;34927;37.302;-121.982;2023-02-28T03:03:42;100768.0;;;25.59;26.12
48530;BME280;34927;37.302;-121.982;2023-02-28T03:04:51;100776.0;;;25.32;26.50
48530;BME280;34927;37.302;-121.982;2023-02-28T03:05:58;100780.0;;;25.12;26.67
48530;BME280;34927;37.302;-121.982;2023-02-28T03:07:01;100781.0;;;24.98;26.82
48530;BME280;34927;37.302;-121.982;2023-02-28T03:08:07;100782.0;;;24.91;26.85
48530;BME280;34927;37.302;-121.982;2023-02-28T03:09:11;100784.0;;;24.72;27.06
48530;BME280;34927;37.302;-121.982;2023-02-28T03:11:27;100788.0;;;24.42;27.38
48530;BME280;34927;37.302;-121.982;2023-02-28T03:12:38;100787.0;;;24.45;27.42
48530;BME280;34927;37.302;-121.982;2023-02-28T03:13:59;100786.0;;;24.65;27.32
48530;BME280;34927;37.302;-121.982;2023-02-28T03:15:11;100787.0;;;24.93;27.04
48530;BME280;34927;37.302;-121.982;2023-02-28T03:16:32;100790.0;;;25.18;26.73
48530;BME280;34927;37.302;-121.982;2023-02-28T03:17:48;100789.0;;;25.39;26.43
48530;BME280;34927;37.302;-121.982;2023-02-28T03:19:04;100795.0;;;25.62;26.16
48530;BME280;34927;37.302;-121.982;2023-02-28T03:20:17;100798.0;;;25.57;26.17
48530;BME280;34927;37.302;-121.982;2023-02-28T03:21:28;100801.0;;;25.41;26.26
48530;BME280;34927;37.302;-121.982;2023-02-28T03:23:53;100804.0;;;25.03;26.76
48530;BME280;34927;37.302;-121.982;2023-02-28T03:25:05;100807.0;;;24.96;26.80
48530;BME280;34927;37.302;-121.982;2023-02-28T03:26:18;100808.0;;;24.82;26.87
48530;BME280;34927;37.302;-121.982;2023-02-28T03:27:27;100808.0;;;24.73;26.99
48530;BME280;34927;37.302;-121.982;2023-02-28T03:28:37;100811.0;;;24.62;27.03
48530;BME280;34927;37.302;-121.982;2023-02-28T03:29:52;100806.0;;;24.31;27.48
48530;BME280;34927;37.302;-121.982;2023-02-28T03:31:09;100803.0;;;24.13;27.69
48530;BME280;34927;37.302;-121.982;2023-02-28T03:32:21;100804.0;;;24.09;27.71
48530;BME280;34927;37.302;-121.982;2023-02-28T03:33:29;100805.0;;;24.07;28.01
48530;BME280;34927;37.302;-121.982;2023-02-28T03:34:39;100804.0;;;24.22;27.93
48530;BME280;34927;37.302;-121.982;2023-02-28T03:35:50;100808.0;;;24.44;27.66
48530;BME280;34927;37.302;-121.982;2023-02-28T03:37:01;100810.0;;;24.64;27.37
48530;BME280;34927;37.302;-121.982;2023-02-28T03:38:10;100806.0;;;24.90;27.05
48530;BME280;34927;37.302;-121.982;2023-02-28T03:39:20;100805.0;;;25.11;26.77
48530;BME280;34927;37.302;-121.982;2023-02-28T03:40:30;100809.0;;;25.19;26.60
48530;BME280;34927;37.302;-121.982;2023-02-28T03:41:40;100812.0;;;24.99;26.75
48530;BME280;34927;37.302;-121.982;2023-02-28T03:42:49;100815.0;;;24.97;26.81
48530;BME280;34927;37.302;-121.982;2023-02-28T03:43:59;100816.0;;;24.67;27.15
48530;BME280;34927;37.302;-121.982;2023-02-28T03:45:11;100819.0;;;24.54;27.35
48530;BME280;34927;37.302;-121.982;2023-02-28T03:46:20;100821.0;;;24.51;27.41
48530;BME280;34927;37.302;-121.982;2023-02-28T03:47:31;100822.0;;;24.49;27.31
48530;BME280;34927;37.302;-121.982;2023-02-28T03:48:40;100823.0;;;24.35;27.42
48530;BME280;34927;37.302;-121.982;2023-02-28T03:49:51;100821.0;;;24.08;27.74
48530;BME280;34927;37.302;-121.982;2023-02-28T03:50:58;100821.0;;;23.93;28.01
48530;BME280;34927;37.302;-121.982;2023-02-28T03:52:03;100820.0;;;23.79;28.22
48530;BME280;34927;37.302;-121.982;2023-02-28T03:53:16;100820.0;;;23.83;28.10
48530;BME280;34927;37.302;-121.982;2023-02-28T03:54:25;100822.0;;;23.76;28.27
48530;BME280;34927;37.302;-121.982;2023-02-28T03:55:41;100824.0;;;23.89;28.20
48530;BME280;34927;37.302;-121.982;2023-02-28T03:56:50;100825.0;;;24.15;27.89
48530;BME280;34927;37.302;-121.982;2023-02-28T03:58:01;100828.0;;;24.39;27.54
48530;BME280;34927;37.302;-121.982;2023-02-28T03:59:13;100830.0;;;24.67;27.20
48530;BME280;34927;37.302;-121.982;2023-02-28T04:00:20;100825.0;;;24.89;26.89
48530;BME280;34927;37.302;-121.982;2023-02-28T04:01:30;100828.0;;;24.91;26.80
48530;BME280;34927;37.302;-121.982;2023-02-28T04:02:37;100835.0;;;24.81;26.85
48530;BME280;34927;37.302;-121.982;2023-02-28T04:03:42;100834.0;;;24.72;26.98
48530;BME280;34927;37.302;-121.982;2023-02-28T04:04:46;100831.0;;;24.42;27.34
48530;BME280;34927;37.302;-121.982;2023-02-28T04:05:53;100828.0;;;24.28;27.51
48530;BME280;34927;37.302;-121.982;2023-02-28T04:07:03;100826.0;;;24.08;27.73
48530;BME280;34927;37.302;-121.982;2023-02-28T04:08:08;100826.0;;;23.99;27.69
48530;BME280;34927;37.302;-121.982;2023-02-28T04:09:13;100827.0;;;23.88;27.84
48530;BME280;34927;37.302;-121.982;2023-02-28T04:10:17;100830.0;;;23.83;27.85
48530;BME280;34927;37.302;-121.982;2023-02-28T04:11:25;100830.0;;;23.55;28.32
48530;BME280;34927;37.302;-121.982;2023-02-28T04:12:31;100825.0;;;23.41;28.49
48530;BME280;34927;37.302;-121.982;2023-02-28T04:13:37;100821.0;;;23.49;28.42
48530;BME280;34927;37.302;-121.982;2023-02-28T04:14:41;100818.0;;;23.35;28.43
48530;BME280;34927;37.302;-121.982;2023-02-28T04:15:46;100820.0;;;23.46;28.49
48530;BME280;34927;37.302;-121.982;2023-02-28T04:16:52;100821.0;;;23.64;28.36
48530;BME280;34927;37.302;-121.982;2023-02-28T04:17:57;100827.0;;;23.83;28.11
48530;BME280;34927;37.302;-121.982;2023-02-28T04:19:02;100826.0;;;24.08;27.74
48530;BME280;34927;37.302;-121.982;2023-02-28T04:20:07;100830.0;;;24.28;27.50
48530;BME280;34927;37.302;-121.982;2023-02-28T04:21:12;100832.0;;;24.56;27.13
48530;BME280;34927;37.302;-121.982;2023-02-28T04:22:18;100832.0;;;24.69;26.91
48530;BME280;34927;37.302;-121.982;2023-02-28T04:23:21;100831.0;;;24.59;26.97
48530;BME280;34927;37.302;-121.982;2023-02-28T04:24:27;100833.0;;;24.56;27.03
48530;BME280;34927;37.302;-121.982;2023-02-28T04:25:32;100830.0;;;24.28;27.29
48530;BME280;34927;37.302;-121.982;2023-02-28T04:26:37;100833.0;;;24.03;27.57
48530;BME280;34927;37.302;-121.982;2023-02-28T04:27:42;100833.0;;;23.92;27.74
48530;BME280;34927;37.302;-121.982;2023-02-28T04:28:46;100831.0;;;23.84;27.79
48530;BME280;34927;37.302;-121.982;2023-02-28T04:29:52;100834.0;;;23.77;27.94
48530;BME280;34927;37.302;-121.982;2023-02-28T04:30:58;100833.0;;;23.66;28.05
48530;BME280;34927;37.302;-121.982;2023-02-28T04:32:03;100831.0;;;23.58;28.18
48530;BME280;34927;37.302;-121.982;2023-02-28T04:33:06;100829.0;;;23.39;28.40
48530;BME280;34927;37.302;-121.982;2023-02-28T04:34:11;100829.0;;;23.41;28.41
48530;BME280;34927;37.302;-121.982;2023-02-28T04:35:17;100832.0;;;23.32;28.47
48530;BME280;34927;37.302;-121.982;2023-02-28T04:36:21;100835.0;;;23.29;28.49
48530;BME280;34927;37.302;-121.982;2023-02-28T04:37:26;100831.0;;;23.37;28.48
48530;BME280;34927;37.302;-121.982;2023-02-28T04:38:34;100830.0;;;23.57;28.29
48530;BME280;34927;37.302;-121.982;2023-02-28T04:39:37;100831.0;;;23.79;27.97
48530;BME280;34927;37.302;-121.982;2023-02-28T04:40:42;100835.0;;;24.05;27.68
48530;BME280;34927;37.302;-121.982;2023-02-28T04:41:46;100840.0;;;24.27;27.37
48530;BME280;34927;37.302;-121.982;2023-02-28T04:42:52;100836.0;;;24.47;27.08
48530;BME280;34927;37.302;-121.982;2023-02-28T04:43:57;100833.0;;;24.52;26.95
48530;BME280;34927;37.302;-121.982;2023-02-28T04:45:02;100838.0;;;24.41;27.04
48530;BME280;34927;37.302;-121.982;2023-02-28T04:46:07;100839.0;;;24.27;27.21
48530;BME280;34927;37.302;-121.982;2023-02-28T04:47:11;100844.0;;;24.06;27.47
48530;BME280;34927;37.302;-121.982;2023-02-28T04:48:16;100841.0;;;23.82;27.74
48530;BME280;34927;37.302;-121.982;2023-02-28T04:49:22;100840.0;;;23.72;27.84
48530;BME280;34927;37.302;-121.982;2023-02-28T04:50:27;100840.0;;;23.68;27.95
48530;BME280;34927;37.302;-121.982;2023-02-28T04:51:31;100837.0;;;23.55;28.07
48530;BME280;34927;37.302;-121.982;2023-02-28T04:52:37;100839.0;;;23.42;28.21
48530;BME280;34927;37.302;-121.982;2023-02-28T04:53:42;100843.0;;;23.33;28.30
48530;BME280;34927;37.302;-121.982;2023-02-28T04:54:47;100846.0;;;23.28;28.37
48530;BME280;34927;37.302;-121.982;2023-02-28T04:55:52;100845.0;;;23.27;28.38
48530;BME280;34927;37.302;-121.982;2023-02-28T04:56:57;100845.0;;;23.25;28.35
48530;BME280;34927;37.302;-121.982;2023-02-28T04:58:02;100848.0;;;23.15;28.56
48530;BME280;34927;37.302;-121.982;2023-02-28T04:59:07;100846.0;;;23.28;28.45
48530;BME280;34927;37.302;-121.982;2023-02-28T05:00:12;100837.0;;;23.48;28.21
48530;BME280;34927;37.302;-121.982;2023-02-28T05:01:22;100838.0;;;23.68;27.97
48530;BME280;34927;37.302;-121.982;2023-02-28T05:02:27;100840.0;;;23.96;27.59
48530;BME280;34927;37.302;-121.982;2023-02-28T05:03:31;100836.0;;;24.25;27.24
48530;BME280;34927;37.302;-121.982;2023-02-28T05:04:36;100836.0;;;24.37;26.97
48530;BME280;34927;37.302;-121.982;2023-02-28T05:05:41;100835.0;;;24.43;26.87
48530;BME280;34927;37.302;-121.982;2023-02-28T05:06:46;100837.0;;;24.29;26.93
48530;BME280;34927;37.302;-121.982;2023-02-28T05:07:52;100841.0;;;24.17;27.16
48530;BME280;34927;37.302;-121.982;2023-02-28T05:08:57;100841.0;;;23.92;27.45
48530;BME280;34927;37.302;-121.982;2023-02-28T05:10:01;100845.0;;;23.73;27.58
48530;BME280;34927;37.302;-121.982;2023-02-28T05:11:10;100847.0;;;23.66;27.75
48530;BME280;34927;37.302;-121.982;2023-02-28T05:12:17;100853.0;;;23.55;27.85
48530;BME280;34927;37.302;-121.982;2023-02-28T05:13:21;100858.0;;;23.51;27.95
48530;BME280;34927;37.302;-121.982;2023-02-28T05:14:27;100857.0;;;23.29;28.24
48530;BME280;34927;37.302;-121.982;2023-02-28T05:15:32;100862.0;;;23.24;28.28
48530;BME280;34927;37.302;-121.982;2023-02-28T05:16:37;100862.0;;;23.21;28.36
48530;BME280;34927;37.302;-121.982;2023-02-28T05:17:42;100865.0;;;23.17;28.36
48530;BME280;34927;37.302;-121.982;2023-02-28T05:18:47;100864.0;;;23.14;28.47
48530;BME280;34927;37.302;-121.982;2023-02-28T05:19:52;100867.0;;;23.19;28.53
48530;BME280;34927;37.302;-121.982;2023-02-28T05:20:57;100868.0;;;23.39;28.32
48530;BME280;34927;37.302;-121.982;2023-02-28T05:22:01;100865.0;;;23.64;28.03
48530;BME280;34927;37.302;-121.982;2023-02-28T05:23:08;100865.0;;;23.84;27.74
48530;BME280;34927;37.302;-121.982;2023-02-28T05:24:12;100867.0;;;24.08;27.46
48530;BME280;34927;37.302;-121.982;2023-02-28T05:25:18;100867.0;;;24.27;27.15
48530;BME280;34927;37.302;-121.982;2023-02-28T05:26:22;100869.0;;;24.43;26.94
48530;BME280;34927;37.302;-121.982;2023-02-28T05:27:27;100872.0;;;24.36;26.93
48530;BME280;34927;37.302;-121.982;2023-02-28T05:28:32;100873.0;;;24.21;27.10
48530;BME280;34927;37.302;-121.982;2023-02-28T05:29:37;100874.0;;;24.02;27.32
48530;BME280;34927;37.302;-121.982;2023-02-28T05:30:41;100870.0;;;23.80;27.59
48530;BME280;34927;37.302;-121.982;2023-02-28T05:31:46;100872.0;;;23.64;27.79
48530;BME280;34927;37.302;-121.982;2023-02-28T05:32:52;100871.0;;;23.58;27.86
48530;BME280;34927;37.302;-121.982;2023-02-28T05:33:57;100872.0;;;23.50;27.94
48530;BME280;34927;37.302;-121.982;2023-02-28T05:35:02;100871.0;;;23.32;28.18
48530;BME280;34927;37.302;-121.982;2023-02-28T05:36:07;100870.0;;;23.29;28.29
48530;BME280;34927;37.302;-121.982;2023-02-28T05:37:13;100869.0;;;23.18;28.42
48530;BME280;34927;37.302;-121.982;2023-02-28T05:38:16;100867.0;;;23.11;28.48
48530;BME280;34927;37.302;-121.982;2023-02-28T05:39:22;100867.0;;;23.06;28.37
48530;BME280;34927;37.302;-121.982;2023-02-28T05:40:26;100868.0;;;23.07;28.55
48530;BME280;34927;37.302;-121.982;2023-02-28T05:41:31;100864.0;;;23.26;28.39
48530;BME280;34927;37.302;-121.982;2023-02-28T05:42:36;100862.0;;;23.46;28.14
48530;BME280;34927;37.302;-121.982;2023-02-28T05:43:41;100861.0;;;23.68;27.87
48530;BME280;34927;37.302;-121.982;2023-02-28T05:44:47;100859.0;;;23.93;27.54
48530;BME280;34927;37.302;-121.982;2023-02-28T05:45:51;100860.0;;;24.19;27.20
48530;BME280;34927;37.302;-121.982;2023-02-28T05:46:56;100856.0;;;24.34;26.93
48530;BME280;34927;37.302;-121.982;2023-02-28T05:48:01;100855.0;;;24.35;26.88
48530;BME280;34927;37.302;-121.982;2023-02-28T05:49:06;100855.0;;;24.20;26.99
48530;BME280;34927;37.302;-121.982;2023-02-28T05:50:12;100856.0;;;24.15;27.11
48530;BME280;34927;37.302;-121.982;2023-02-28T05:51:17;100855.0;;;23.86;27.37